Time;durP1;ratioP1;P1;durP2;ratioP2;P2;SDS_P1;SDS_P2;PMS_P1;PMS_P2;Temp;Humidity;BMP_temperature;BMP_pressure;BME280_temperature;BME280_humidity;BME280_pressure;Samples;Min_cycle;Max_cycle;Signal;HPM_P1;HPM_P2
2022/03/14 00:00:17;;;;;;;19.38;7.78;;;;;;;2.09;45.38;101113.88;3158324;28;20051;-67
2022/03/14 00:01:50;;;;;;;18.52;7.50;;;;;;;2.45;45.56;101182.78;3153537;28;20854;-67
2022/03/14 00:03:25;;;;;;;16.65;7.63;;;;;;;2.47;45.41;101180.25;3158224;28;20105;-66
2022/03/14 00:04:57;;;;;;;15.95;7.85;;;;;;;2.45;45.63;101182.78;3157742;28;20506;-67
2022/03/14 00:06:29;;;;;;;17.48;7.57;;;;;;;2.44;45.76;101183.66;3158046;28;20098;-67
2022/03/14 00:08:02;;;;;;;13.70;6.85;;;;;;;2.20;45.76;101135.41;3157501;28;20501;-67
2022/03/14 00:09:34;;;;;;;19.17;7.90;;;;;;;2.41;45.99;101177.63;3157788;28;20048;-66
2022/03/14 00:11:05;;;;;;;20.40;8.18;;;;;;;2.41;45.62;101177.63;3158210;28;20126;-67
2022/03/14 00:12:38;;;;;;;18.08;8.00;;;;;;;2.44;46.05;101178.50;3157366;28;20063;-66
2022/03/14 00:14:10;;;;;;;18.10;8.57;;;;;;;2.40;46.16;101169.03;3157991;28;20059;-67
2022/03/14 00:15:42;;;;;;;20.00;7.55;;;;;;;2.46;46.06;101187.09;3157822;28;20052;-66
2022/03/14 00:17:15;;;;;;;15.13;7.30;;;;;;;2.49;46.00;101176.84;3157479;28;20097;-66
2022/03/14 00:18:50;;;;;;;18.77;7.93;;;;;;;2.49;46.08;101181.13;3157745;28;20079;-66
2022/03/14 00:20:22;;;;;;;15.20;7.30;;;;;;;2.48;46.21;101176.81;3157341;28;20574;-66
2022/03/14 00:21:54;;;;;;;15.95;7.05;;;;;;;2.45;46.30;101169.06;3157375;28;20055;-66
2022/03/14 00:23:27;;;;;;;15.93;7.28;;;;;;;2.54;46.30;101194.03;3158105;28;20056;-66
2022/03/14 00:24:59;;;;;;;14.50;7.07;;;;;;;2.53;46.17;101187.16;3157658;28;20059;-67
2022/03/14 00:26:31;;;;;;;16.90;7.07;;;;;;;2.54;46.13;101194.88;3156943;28;20104;-66
2022/03/14 00:28:03;;;;;;;18.33;7.38;;;;;;;2.56;46.23;101192.34;3161670;28;20044;-67
2022/03/14 00:29:35;;;;;;;14.23;6.75;;;;;;;2.54;46.31;101188.88;3157426;28;20445;-67
2022/03/14 00:31:07;;;;;;;13.77;6.65;;;;;;;2.58;46.42;101188.09;3158427;28;20056;-67
2022/03/14 00:32:39;;;;;;;18.02;7.50;;;;;;;2.59;46.45;101182.06;3151585;28;20196;-67
2022/03/14 00:34:13;;;;;;;14.20;7.03;;;;;;;2.60;46.37;101187.22;3157578;28;20474;-67
2022/03/14 00:35:45;;;;;;;16.75;6.93;;;;;;;2.60;46.37;101184.66;3157516;28;20048;-67
2022/03/14 00:37:17;;;;;;;14.32;7.15;;;;;;;2.57;46.28;101179.47;3157875;28;20055;-67
2022/03/14 00:38:50;;;;;;;14.75;6.80;;;;;;;2.59;46.42;101182.06;3157314;28;20051;-67
2022/03/14 00:40:22;;;;;;;17.25;6.82;;;;;;;2.62;46.34;101194.97;3154800;28;20055;-66
2022/03/14 00:41:54;;;;;;;13.43;6.72;;;;;;;2.61;46.35;101182.97;3157617;28;20048;-67
2022/03/14 00:43:26;;;;;;;15.88;7.03;;;;;;;2.67;46.37;101188.16;3157145;28;20044;-66
2022/03/14 00:44:58;;;;;;;15.15;7.32;;;;;;;2.67;46.17;101188.16;3161137;28;20044;-67
2022/03/14 00:46:31;;;;;;;13.27;7.35;;;;;;;2.63;46.27;101182.13;3163080;28;20118;-67
2022/03/14 00:48:02;;;;;;;14.80;6.78;;;;;;;2.70;46.21;101190.75;3158467;28;20160;-66
2022/03/14 00:49:35;;;;;;;17.45;7.55;;;;;;;2.71;46.31;101193.34;3157214;28;20056;-66
2022/03/14 00:51:06;;;;;;;14.27;7.15;;;;;;;2.73;46.15;101194.22;3157455;28;20409;-66
2022/03/14 00:52:38;;;;;;;14.73;7.63;;;;;;;2.74;46.48;101185.63;3157013;28;20126;-66
2022/03/14 00:54:12;;;;;;;26.00;10.05;;;;;;;2.76;46.27;101182.25;3157525;28;20052;-67
2022/03/14 00:55:44;;;;;;;24.48;10.65;;;;;;;2.74;46.41;101182.22;3157356;28;20054;-66
2022/03/14 00:57:16;;;;;;;22.83;10.32;;;;;;;2.76;46.42;101190.81;3157441;28;20367;-66
2022/03/14 00:58:47;;;;;;;25.52;10.05;;;;;;;2.72;46.33;101176.19;3157203;28;20130;-67
2022/03/14 01:00:20;;;;;;;20.90;9.57;;;;;;;2.81;46.42;101194.31;3157356;28;20132;-67
2022/03/14 01:01:52;;;;;;;30.90;10.48;;;;;;;2.82;46.50;101190.88;3157300;28;20434;-67
2022/03/14 01:03:24;;;;;;;20.23;9.32;;;;;;;2.76;46.41;101184.81;3157175;28;20806;-66
2022/03/14 01:04:56;;;;;;;23.02;9.32;;;;;;;2.79;46.42;101184.84;3157967;28;20048;-66
2022/03/14 01:06:29;;;;;;;27.48;9.52;;;;;;;2.71;46.49;101177.03;3157251;28;20109;-66
2022/03/14 01:08:01;;;;;;;18.95;8.32;;;;;;;2.84;46.55;101194.31;3157283;28;20052;-66
2022/03/14 01:09:34;;;;;;;20.00;9.30;;;;;;;2.82;46.66;101193.44;3157259;28;20446;-67
2022/03/14 01:11:06;;;;;;;;;;;;;;;2.67;46.61;101196.72;3151653;28;20043;-66
2022/03/14 01:12:37;;;;;;;18.90;8.50;;;;;;;2.74;46.72;101203.66;3157205;28;19920;-67
2022/03/14 01:14:10;;;;;;;17.48;8.82;;;;;;;2.79;46.81;101196.00;3158795;28;20052;-66
2022/03/14 01:15:41;;;;;;;20.08;9.05;;;;;;;2.69;46.68;101179.63;3159391;28;20051;-66
2022/03/14 01:17:13;;;;;;;20.25;8.80;;;;;;;2.85;46.51;101195.19;3157239;28;20582;-66
2022/03/14 01:18:45;;;;;;;20.98;9.27;;;;;;;2.87;46.62;101202.06;3160759;28;20101;-66
2022/03/14 01:20:19;;;;;;;18.40;8.90;;;;;;;2.87;46.68;101198.59;3157083;28;20414;-66
2022/03/14 01:21:51;;;;;;;21.10;8.55;;;;;;;2.85;46.72;101196.03;3157666;28;20501;-67
2022/03/14 01:23:22;;;;;;;20.17;8.98;;;;;;;2.85;46.69;101190.91;3150571;28;20436;-66
2022/03/14 01:24:55;;;;;;;17.42;9.07;;;;;;;2.86;46.83;101194.31;3157925;28;20451;-66
2022/03/14 01:26:27;;;;;;;20.30;9.20;;;;;;;2.85;46.81;101195.19;3157257;28;20048;-66
2022/03/14 01:27:59;;;;;;;17.50;8.23;;;;;;;2.86;46.82;101195.19;3157598;28;20048;-66
2022/03/14 01:29:31;;;;;;;20.50;8.98;;;;;;;2.89;46.74;101205.50;3157048;28;20052;-66
2022/03/14 01:31:03;;;;;;;16.00;8.25;;;;;;;2.88;46.68;101198.63;3156440;28;20051;-66
2022/03/14 01:32:35;;;;;;;16.45;8.65;;;;;;;2.90;46.68;101206.38;3156888;28;20170;-66
2022/03/14 01:34:08;;;;;;;19.05;9.48;;;;;;;2.87;46.72;101194.34;3157005;28;20056;-66
2022/03/14 01:35:41;;;;;;;21.60;8.80;;;;;;;2.89;46.83;101205.50;3157390;28;20422;-66
2022/03/14 01:37:13;;;;;;;18.77;8.73;;;;;;;2.86;46.93;101195.19;3157016;28;20040;-66
2022/03/14 01:38:44;;;;;;;20.10;9.57;;;;;;;2.89;47.03;101196.91;3157462;28;20502;-67
2022/03/14 01:40:17;;;;;;;21.00;9.80;;;;;;;2.90;46.78;101202.09;3157326;28;20116;-67
2022/03/14 01:41:49;;;;;;;;;;;;;;;2.72;46.96;101204.47;3157873;28;20464;-68
2022/03/14 01:43:24;;;;;;;22.05;10.52;;;;;;;2.78;47.19;101209.72;3156735;28;19943;-67
2022/03/14 01:44:56;;;;;;;19.10;9.77;;;;;;;2.81;47.04;101206.28;3157529;28;20125;-67
2022/03/14 01:46:28;;;;;;;24.48;10.43;;;;;;;2.77;47.07;101194.25;3157453;28;20105;-67
2022/03/14 01:48:00;;;;;;;23.33;10.88;;;;;;;2.86;47.11;101213.19;3160085;28;20047;-67
2022/03/14 01:49:31;;;;;;;28.70;11.75;;;;;;;2.83;47.08;101202.88;3159154;28;20047;-67
2022/03/14 01:51:03;;;;;;;23.85;11.20;;;;;;;2.84;47.26;101216.59;3158856;28;20052;-67
2022/03/14 01:52:35;;;;;;;30.60;12.27;;;;;;;2.85;47.40;101219.19;3160023;28;20051;-67
2022/03/14 01:54:08;;;;;;;29.80;12.13;;;;;;;2.85;47.59;101220.91;3159311;28;20060;-66
2022/03/14 01:55:41;;;;;;;24.75;12.13;;;;;;;2.81;47.57;101222.59;3159437;28;20056;-66
2022/03/14 01:57:13;;;;;;;26.17;11.63;;;;;;;2.83;47.67;101225.16;3159365;28;20056;-67
2022/03/14 01:58:46;;;;;;;28.60;12.88;;;;;;;2.80;47.81;101217.44;3159269;28;20483;-66
2022/03/14 02:00:18;;;;;;;28.48;12.88;;;;;;;2.62;47.66;101192.41;3158999;28;20441;-66
2022/03/14 02:01:50;;;;;;;29.80;13.82;;;;;;;2.85;47.87;101238.91;3153531;28;20048;-65
2022/03/14 02:03:22;;;;;;;27.50;13.25;;;;;;;2.81;47.95;101234.56;3159116;28;20052;-66
2022/03/14 02:04:54;;;;;;;30.27;14.00;;;;;;;2.76;47.98;101231.97;3159005;28;20105;-66
2022/03/14 02:06:27;;;;;;;36.45;16.10;;;;;;;2.86;48.12;101246.63;3159180;28;20052;-66
2022/03/14 02:07:59;;;;;;;38.30;15.23;;;;;;;2.69;48.13;101219.88;3159419;28;20052;-66
2022/03/14 02:09:31;;;;;;;32.35;14.82;;;;;;;2.84;48.15;101248.34;3162566;28;20048;-66
2022/03/14 02:11:04;;;;;;;34.13;15.10;;;;;;;2.76;48.32;101236.25;3159021;28;20105;-66
2022/03/14 02:12:36;;;;;;;35.55;14.98;;;;;;;2.73;48.21;101234.53;3159607;28;20498;-66
2022/03/14 02:14:08;;;;;;;35.30;16.42;;;;;;;2.83;48.35;101253.47;3158991;28;20059;-66
2022/03/14 02:15:40;;;;;;;31.73;15.35;;;;;;;2.85;48.24;101262.06;3159649;28;20056;-66
2022/03/14 02:17:14;;;;;;;35.58;14.85;;;;;;;2.73;48.38;101240.53;3158955;28;20059;-66
2022/03/14 02:18:46;;;;;;;32.53;14.60;;;;;;;2.83;48.52;101258.63;3158670;28;20108;-66
2022/03/14 02:20:19;;;;;;;32.97;15.68;;;;;;;2.84;48.45;101258.66;3158982;28;20703;-66
2022/03/14 02:21:51;;;;;;;;;;;;;;;2.65;48.72;101265.28;3160152;28;20121;-66
2022/03/14 02:23:23;;;;;;;27.67;13.68;;;;;;;2.68;48.84;101265.31;3158790;28;19920;-66
2022/03/14 02:24:55;;;;;;;34.15;15.32;;;;;;;2.76;48.70;101273.13;3158777;28;20079;-66
2022/03/14 02:26:27;;;;;;;38.30;15.38;;;;;;;2.59;48.75;101244.66;3159325;28;20075;-66
2022/03/14 02:27:59;;;;;;;35.03;16.15;;;;;;;2.75;48.83;101268.81;3158808;28;20436;-66
2022/03/14 02:29:30;;;;;;;34.08;15.05;;;;;;;2.79;48.84;101275.75;3160453;28;20055;-66
2022/03/14 02:31:03;;;;;;;33.38;15.38;;;;;;;2.66;49.02;101255.88;3158830;28;20104;-66
2022/03/14 02:32:39;;;;;;;34.13;15.18;;;;;;;2.68;48.88;101260.19;3158931;28;20129;-66
2022/03/14 02:34:11;;;;;;;30.52;15.07;;;;;;;2.60;49.12;101246.38;3158830;28;20044;-66
2022/03/14 02:35:45;;;;;;;33.08;16.30;;;;;;;2.79;49.03;101280.88;3159188;28;20051;-66
2022/03/14 02:37:17;;;;;;;37.00;16.23;;;;;;;2.73;49.23;101266.25;3157659;28;20044;-66
2022/03/14 02:38:49;;;;;;;39.95;16.88;;;;;;;2.81;49.20;101280.88;3159390;28;20044;-66
2022/03/14 02:40:21;;;;;;;31.73;15.50;;;;;;;2.81;49.25;101275.75;3158902;28;20086;-67
2022/03/14 02:41:52;;;;;;;32.80;15.25;;;;;;;2.79;49.26;101285.16;3158767;28;20044;-67
2022/03/14 02:43:24;;;;;;;35.67;16.13;;;;;;;2.78;49.29;101279.16;3159202;28;20689;-66
2022/03/14 02:44:56;;;;;;;37.80;16.67;;;;;;;2.74;49.31;101272.25;3158645;28;20044;-66
2022/03/14 02:46:29;;;;;;;29.67;14.40;;;;;;;2.78;49.28;101281.75;3158230;28;20052;-67
2022/03/14 02:48:01;;;;;;;32.35;15.50;;;;;;;2.79;49.44;101285.16;3156573;28;20581;-67
2022/03/14 02:49:34;;;;;;;30.55;14.98;;;;;;;2.77;49.35;101284.28;3158800;28;20393;-67
2022/03/14 02:51:07;;;;;;;30.88;14.40;;;;;;;2.78;49.30;101292.03;3158486;28;20056;-67
2022/03/14 02:52:39;;;;;;;28.58;13.55;;;;;;;2.67;49.70;101276.47;3162978;28;20052;-67
2022/03/14 02:54:11;;;;;;;31.35;14.32;;;;;;;2.75;49.65;101297.13;3158280;28;20543;-67
2022/03/14 02:55:44;;;;;;;32.55;14.82;;;;;;;2.72;49.60;101291.94;3157649;28;20543;-66
2022/03/14 02:57:16;;;;;;;27.40;14.55;;;;;;;2.70;49.65;101293.66;3158375;28;20059;-67
2022/03/14 02:58:54;;;;;;;28.38;14.25;;;;;;;2.73;49.72;101293.69;3158570;28;20048;-67
2022/03/14 03:00:26;;;;;;;37.50;15.23;;;;;;;2.68;50.00;101287.63;3159606;28;20109;-67
2022/03/14 03:01:58;;;;;;;33.67;16.08;;;;;;;2.71;49.88;101295.38;3158709;28;20658;-67
2022/03/14 03:03:30;;;;;;;33.90;16.23;;;;;;;2.50;50.17;101275.41;3159130;28;20121;-67
2022/03/14 03:05:05;;;;;;;36.40;15.88;;;;;;;2.67;50.15;101304.75;3158442;28;20432;-67
2022/03/14 03:06:38;;;;;;;33.65;16.02;;;;;;;2.69;50.08;101308.22;3158533;28;20459;-67
2022/03/14 03:08:10;;;;;;;30.23;14.88;;;;;;;2.64;50.29;101304.72;3158203;28;20056;-68
2022/03/14 03:09:42;;;;;;;31.20;14.68;;;;;;;2.65;50.43;101305.59;3159093;28;20109;-66
2022/03/14 03:11:15;;;;;;;34.00;15.30;;;;;;;2.65;50.40;101310.72;3158393;28;20445;-66
2022/03/14 03:12:47;;;;;;;29.58;15.23;;;;;;;2.64;50.55;101309.88;3158989;28;20505;-66
2022/03/14 03:14:18;;;;;;;35.03;15.32;;;;;;;2.61;50.45;101309.84;3157885;28;20437;-66
2022/03/14 03:15:50;;;;;;;32.28;14.80;;;;;;;2.53;50.44;101296.03;3159506;28;20059;-67
2022/03/14 03:17:22;;;;;;;38.58;18.77;;;;;;;2.64;50.51;101309.03;3153638;28;20044;-67
2022/03/14 03:18:54;;;;;;;30.40;16.60;;;;;;;2.52;50.80;101298.59;3158254;28;20052;-66
2022/03/14 03:20:26;;;;;;;31.30;16.33;;;;;;;2.55;50.80;101304.63;3162248;28;20051;-66
2022/03/14 03:21:58;;;;;;;33.83;14.68;;;;;;;2.59;50.75;101308.94;3158238;28;20051;-66
2022/03/14 03:23:31;;;;;;;29.60;14.88;;;;;;;2.38;50.95;101276.13;3160595;28;20059;-66
2022/03/14 03:25:03;;;;;;;28.47;15.37;;;;;;;2.35;50.82;101273.53;3157999;28;20566;-66
2022/03/14 03:26:38;;;;;;;33.50;15.15;;;;;;;2.18;50.87;101249.31;3157888;28;20067;-66
2022/03/14 03:28:10;;;;;;;32.55;15.52;;;;;;;2.54;50.87;101312.31;3157900;28;20058;-66
2022/03/14 03:29:42;;;;;;;29.55;13.65;;;;;;;2.55;50.90;101314.06;3158741;28;20051;-66
2022/03/14 03:31:16;;;;;;;30.48;14.35;;;;;;;2.47;51.03;101303.66;3157916;28;20485;-66
2022/03/14 03:32:48;;;;;;;32.80;14.52;;;;;;;2.52;50.94;101316.59;3158372;28;20130;-66
2022/03/14 03:34:20;;;;;;;30.10;13.90;;;;;;;2.50;50.81;101321.69;3158245;28;20453;-66
2022/03/14 03:35:52;;;;;;;28.13;14.02;;;;;;;2.49;50.80;101317.41;3158033;28;20047;-66
2022/03/14 03:37:25;;;;;;;29.50;13.23;;;;;;;2.45;50.97;101313.91;3158751;28;20059;-66
2022/03/14 03:38:58;;;;;;;30.38;14.15;;;;;;;2.46;50.95;101322.53;3158190;28;20671;-67
2022/03/14 03:40:30;;;;;;;30.40;14.60;;;;;;;2.42;50.88;101321.59;3158447;28;20514;-66
2022/03/14 03:42:02;;;;;;;31.33;13.60;;;;;;;2.41;50.80;101322.44;3159159;28;20070;-66
2022/03/14 03:43:34;;;;;;;31.15;13.30;;;;;;;2.40;50.96;101325.03;3160462;28;20051;-66
2022/03/14 03:45:07;;;;;;;30.85;13.90;;;;;;;2.39;50.82;101324.13;3157816;28;20040;-66
2022/03/14 03:46:39;;;;;;;27.33;13.32;;;;;;;2.40;50.74;101336.16;3158295;28;20534;-66
2022/03/14 03:48:11;;;;;;;22.95;11.88;;;;;;;2.40;50.69;101331.03;3157771;28;20052;-66
2022/03/14 03:49:43;;;;;;;26.65;12.40;;;;;;;2.41;50.87;101343.03;3158351;28;20048;-66
2022/03/14 03:51:15;;;;;;;28.30;12.93;;;;;;;2.39;50.81;101333.56;3158674;28;20072;-68
2022/03/14 03:52:48;;;;;;;25.60;12.40;;;;;;;2.40;50.59;101335.31;3157819;28;20142;-66
2022/03/14 03:54:20;;;;;;;26.00;13.52;;;;;;;2.38;50.59;101329.28;3158306;28;20444;-65
2022/03/14 03:55:52;;;;;;;25.15;12.65;;;;;;;2.35;50.65;101340.38;3157979;28;20551;-66
2022/03/14 03:57:24;;;;;;;28.10;12.48;;;;;;;2.33;50.52;101334.34;3157900;28;20050;-66
2022/03/14 03:58:56;;;;;;;27.48;12.48;;;;;;;2.32;50.58;101336.91;3157519;28;20052;-66
2022/03/14 04:00:27;;;;;;;27.48;12.60;;;;;;;2.33;50.48;101336.91;3160892;28;20084;-66
2022/03/14 04:02:01;;;;;;;34.00;12.40;;;;;;;2.33;50.52;101347.19;3157529;28;20093;-66
2022/03/14 04:03:34;;;;;;;26.20;12.30;;;;;;;2.28;50.28;101346.28;3158447;28;20071;-66
2022/03/14 04:05:07;;;;;;;28.88;11.82;;;;;;;2.26;50.62;101345.41;3157878;28;20052;-66
2022/03/14 04:06:41;;;;;;;22.73;11.88;;;;;;;1.95;50.41;101292.69;3158121;28;20564;-66
2022/03/14 04:08:14;;;;;;;21.58;11.82;;;;;;;2.31;50.34;101353.16;3157818;28;20050;-67
2022/03/14 04:09:46;;;;;;;25.75;10.80;;;;;;;2.30;50.40;101359.16;3156967;28;20688;-66
2022/03/14 04:11:18;;;;;;;29.38;12.55;;;;;;;2.31;50.29;101360.88;3157974;28;20047;-66
2022/03/14 04:12:52;;;;;;;25.67;11.80;;;;;;;2.30;50.33;101357.44;3157817;28;20109;-66
2022/03/14 04:14:23;;;;;;;26.48;12.07;;;;;;;2.27;50.26;101350.53;3153742;28;20044;-66
2022/03/14 04:15:57;;;;;;;24.45;11.93;;;;;;;2.32;50.25;101365.19;3157541;28;20120;-66
2022/03/14 04:17:29;;;;;;;29.70;12.60;;;;;;;2.22;50.18;101357.34;3158117;28;20618;-67
2022/03/14 04:19:00;;;;;;;31.83;12.63;;;;;;;2.25;49.92;101366.81;3157676;28;20044;-66
2022/03/14 04:20:32;;;;;;;29.70;12.85;;;;;;;2.30;49.99;101372.84;3158239;28;20048;-66
2022/03/14 04:22:05;;;;;;;28.92;12.93;;;;;;;2.24;49.91;101362.50;3157437;28;20097;-66
2022/03/14 04:23:38;;;;;;;27.27;12.98;;;;;;;2.27;49.93;101358.25;3157398;28;20048;-66
2022/03/14 04:25:11;;;;;;;27.10;11.85;;;;;;;2.33;49.88;101372.91;3157287;28;20226;-66
2022/03/14 04:26:43;;;;;;;28.90;12.30;;;;;;;2.33;49.75;101378.03;3157736;28;20079;-66
2022/03/14 04:28:15;;;;;;;24.20;11.57;;;;;;;2.34;49.57;101374.66;3162497;28;20898;-66
2022/03/14 04:29:48;;;;;;;27.87;11.10;;;;;;;2.33;49.69;101379.75;3157223;28;20199;-66
2022/03/14 04:31:21;;;;;;;21.85;11.10;;;;;;;2.33;49.63;101383.19;3162195;28;20667;-65
2022/03/14 04:32:52;;;;;;;27.67;11.35;;;;;;;2.30;49.55;101378.00;3157556;28;20063;-66
2022/03/14 04:34:24;;;;;;;22.27;11.38;;;;;;;2.34;49.55;101387.50;3157908;28;20109;-66
2022/03/14 04:35:56;;;;;;;25.70;12.77;;;;;;;2.37;49.58;101390.13;3157392;28;20149;-66
2022/03/14 04:37:28;;;;;;;25.02;11.50;;;;;;;2.34;49.34;101387.50;3158026;28;20056;-66
2022/03/14 04:39:04;;;;;;;24.65;12.02;;;;;;;2.38;49.37;101394.41;3157388;28;20120;-67
2022/03/14 04:40:36;;;;;;;30.15;12.13;;;;;;;2.37;49.39;101389.25;3157078;28;20052;-66
2022/03/14 04:42:09;;;;;;;30.80;12.38;;;;;;;2.37;49.48;101392.69;3157228;28;20116;-67
2022/03/14 04:43:40;;;;;;;26.55;13.00;;;;;;;2.22;49.40;101377.06;3155914;28;20052;-66
2022/03/14 04:45:12;;;;;;;25.90;12.52;;;;;;;2.38;49.49;101393.53;3157688;28;20502;-66
2022/03/14 04:46:44;;;;;;;26.90;13.48;;;;;;;2.38;49.33;101396.97;3156977;28;20048;-66
2022/03/14 04:48:17;;;;;;;26.13;13.27;;;;;;;2.38;49.33;101394.41;3163919;28;20055;-66
2022/03/14 04:49:49;;;;;;;29.75;12.68;;;;;;;2.39;49.51;101405.53;3157237;28;20508;-66
2022/03/14 04:51:21;;;;;;;28.80;13.15;;;;;;;2.41;49.21;101406.44;3157744;28;20257;-66
2022/03/14 04:52:54;;;;;;;30.80;13.20;;;;;;;2.41;49.37;101406.44;3157183;28;20087;-66
2022/03/14 04:54:27;;;;;;;30.88;13.20;;;;;;;2.43;49.25;101402.19;3161133;28;20062;-66
2022/03/14 04:55:59;;;;;;;29.08;13.45;;;;;;;2.34;49.23;101395.22;3158320;28;20451;-66
2022/03/14 04:57:31;;;;;;;35.55;13.30;;;;;;;2.45;49.20;101403.06;3157520;28;20097;-66
2022/03/14 04:59:03;;;;;;;26.83;13.02;;;;;;;2.43;49.15;101405.63;3157108;28;20476;-66
2022/03/14 05:00:35;;;;;;;38.22;13.63;;;;;;;2.44;49.22;101402.19;3157014;28;20044;-66
2022/03/14 05:02:07;;;;;;;30.45;14.15;;;;;;;2.46;49.17;101403.09;3158316;28;20055;-66
2022/03/14 05:03:38;;;;;;;32.30;14.77;;;;;;;2.44;49.31;101399.63;3157284;28;20141;-65
2022/03/14 05:05:11;;;;;;;33.78;16.13;;;;;;;2.48;49.22;101404.00;3158427;28;20055;-67
2022/03/14 05:06:44;;;;;;;;;;;;;;;2.32;49.45;101407.16;3157628;28;20441;-66
2022/03/14 05:08:16;;;;;;;28.92;14.25;;;;;;;2.21;49.41;101375.31;3157048;28;20425;-67
2022/03/14 05:09:49;;;;;;;29.55;13.60;;;;;;;2.49;49.49;101417.69;3157163;28;20577;-67
2022/03/14 05:11:21;;;;;;;;;;;;;;;2.33;49.33;101414.03;3161074;28;20047;-67
2022/03/14 05:12:53;;;;;;;30.63;13.82;;;;;;;2.43;49.63;101415.03;3160680;28;20363;-67
2022/03/14 05:14:25;;;;;;;30.35;14.73;;;;;;;2.47;49.31;101412.53;3157919;28;20056;-67
2022/03/14 05:15:57;;;;;;;37.33;14.40;;;;;;;2.56;49.19;101416.06;3162369;28;20502;-66
2022/03/14 05:17:30;;;;;;;29.10;14.50;;;;;;;2.57;49.24;101413.50;3157046;28;20425;-66
2022/03/14 05:19:02;;;;;;;29.73;13.93;;;;;;;2.49;49.39;101410.84;3157329;28;20665;-67
2022/03/14 05:20:36;;;;;;;29.60;13.65;;;;;;;2.56;49.39;101423.78;3157917;28;20112;-67
2022/03/14 05:22:08;;;;;;;31.45;14.82;;;;;;;2.62;49.37;101434.16;3164024;28;20055;-67
2022/03/14 05:23:40;;;;;;;31.77;14.75;;;;;;;2.65;49.47;101441.91;3159744;28;20052;-67
2022/03/14 05:25:13;;;;;;;32.33;13.60;;;;;;;2.67;49.46;101443.66;3160111;28;20056;-67
2022/03/14 05:26:46;;;;;;;;;;;;;;;2.51;49.41;101441.72;3159967;28;20056;-67
2022/03/14 05:28:18;;;;;;;38.83;12.90;;;;;;;2.59;49.58;101434.97;3162067;28;20035;-66
2022/03/14 05:29:49;;;;;;;38.58;13.07;;;;;;;2.67;49.31;101443.66;3159476;28;20055;-66
2022/03/14 05:31:21;;;;;;;34.08;13.77;;;;;;;2.68;49.28;101434.22;3159611;28;20068;-66
2022/03/14 05:32:53;;;;;;;30.85;13.50;;;;;;;2.77;49.32;101434.34;3160683;28;20044;-66
2022/03/14 05:34:26;;;;;;;32.05;13.10;;;;;;;2.80;49.24;101438.69;3159432;28;20060;-66
2022/03/14 05:35:58;;;;;;;28.65;12.60;;;;;;;2.81;49.29;101443.84;3159746;28;20444;-66
2022/03/14 05:37:30;;;;;;;26.88;12.95;;;;;;;2.79;49.26;101431.81;3159167;28;20540;-65
2022/03/14 05:39:02;;;;;;;25.83;13.25;;;;;;;2.82;49.31;101443.00;3165159;28;20060;-67
2022/03/14 05:40:35;;;;;;;27.20;12.93;;;;;;;2.93;49.22;101446.59;3159025;28;20382;-66
2022/03/14 05:42:07;;;;;;;33.58;13.48;;;;;;;2.95;49.14;101447.44;3159227;28;20109;-66
2022/03/14 05:43:39;;;;;;;31.67;12.25;;;;;;;2.95;49.18;101439.72;3159545;28;20180;-66
2022/03/14 05:45:12;;;;;;;30.27;13.93;;;;;;;3.06;49.04;101447.59;3159676;28;20044;-67
2022/03/14 05:46:44;;;;;;;26.38;12.82;;;;;;;3.12;48.90;101451.94;3158764;28;20089;-67
2022/03/14 05:48:16;;;;;;;36.97;14.25;;;;;;;3.18;48.84;101454.59;3160135;28;20052;-67
2022/03/14 05:49:48;;;;;;;31.55;13.38;;;;;;;3.24;48.94;101452.09;3161473;28;20048;-67
2022/03/14 05:51:19;;;;;;;35.13;12.63;;;;;;;3.23;48.72;101450.38;3158907;28;20051;-68
2022/03/14 05:52:51;;;;;;;37.67;13.77;;;;;;;3.35;48.69;101454.78;3159612;28;20131;-66
2022/03/14 05:54:23;;;;;;;35.10;13.80;;;;;;;3.44;48.49;101459.19;3162188;28;20051;-67
2022/03/14 05:55:57;;;;;;;25.75;13.15;;;;;;;3.53;48.40;101465.28;3159356;28;20101;-67
2022/03/14 05:57:29;;;;;;;31.70;12.70;;;;;;;3.60;48.17;101466.19;3158759;28;20191;-67
2022/03/14 05:59:01;;;;;;;39.55;13.18;;;;;;;3.66;47.99;101450.78;3159783;28;20101;-67
2022/03/14 06:00:33;;;;;;;34.95;14.27;;;;;;;3.56;47.77;101421.50;3158490;28;20048;-67
2022/03/14 06:02:05;;;;;;;32.08;13.55;;;;;;;3.82;47.62;101446.66;3160018;28;20097;-67
2022/03/14 06:03:37;;;;;;;28.63;13.32;;;;;;;3.98;47.38;101463.13;3158698;28;20052;-67
2022/03/14 06:05:09;;;;;;;30.60;13.07;;;;;;;4.08;47.21;101459.75;3159628;28;20052;-67
2022/03/14 06:06:42;;;;;;;27.55;12.93;;;;;;;4.14;47.02;101449.50;3158546;28;20047;-68
2022/03/14 06:08:14;;;;;;;49.23;14.90;;;;;;;4.28;46.73;101452.19;3158689;28;20663;-67
2022/03/14 06:09:46;;;;;;;31.60;13.77;;;;;;;4.39;46.35;101450.53;3159750;28;20090;-67
2022/03/14 06:11:20;;;;;;;38.67;14.25;;;;;;;4.58;46.23;101451.50;3160070;28;20087;-67
2022/03/14 06:12:52;;;;;;;31.73;12.43;;;;;;;4.78;45.90;101456.78;3160826;28;20105;-67
2022/03/14 06:14:24;;;;;;;30.65;12.82;;;;;;;4.88;45.28;101449.94;3159372;28;20051;-67
2022/03/14 06:15:56;;;;;;;27.13;12.15;;;;;;;4.93;44.80;101445.66;3158688;28;20048;-67
2022/03/14 06:17:28;;;;;;;31.45;13.68;;;;;;;5.05;44.63;101453.47;3158617;28;20082;-67
2022/03/14 06:19:00;;;;;;;29.20;12.68;;;;;;;5.29;44.42;101468.19;3159799;28;20056;-67
2022/03/14 06:20:32;;;;;;;24.48;11.15;;;;;;;5.45;43.80;101474.28;3158863;28;20048;-67
2022/03/14 06:22:04;;;;;;;25.38;11.07;;;;;;;5.59;43.63;101470.00;3157442;28;20146;-65
2022/03/14 06:23:36;;;;;;;31.30;12.88;;;;;;;5.49;43.26;101429.47;3157874;28;20097;-67
2022/03/14 06:25:09;;;;;;;24.10;11.45;;;;;;;5.84;43.14;101452.78;3160809;28;20473;-67
2022/03/14 06:26:43;;;;;;;31.23;12.27;;;;;;;6.14;42.82;101475.25;3159012;28;20048;-67
2022/03/14 06:28:15;;;;;;;;;;;;;;;6.23;43.01;101469.22;3159942;28;20052;-67
2022/03/14 06:29:47;;;;;;;31.60;11.55;;;;;;;6.19;42.23;101420.94;3158731;28;19920;-66
2022/03/14 06:31:19;;;;;;;30.75;11.98;;;;;;;6.76;41.64;101464.81;3159139;28;20040;-67
2022/03/14 06:32:51;;;;;;;26.05;12.55;;;;;;;7.09;41.21;101489.72;3157969;28;20051;-67
2022/03/14 06:34:24;;;;;;;23.25;11.70;;;;;;;7.27;40.61;101486.19;3158634;28;20051;-66
2022/03/14 06:35:55;;;;;;;26.20;12.63;;;;;;;7.57;40.43;101492.09;3159394;28;20384;-67
2022/03/14 06:37:27;;;;;;;25.42;12.32;;;;;;;8.00;39.87;101499.59;3158438;28;20052;-67
2022/03/14 06:38:59;;;;;;;24.85;11.75;;;;;;;8.50;39.27;101493.16;3159069;28;20052;-67
2022/03/14 06:40:31;;;;;;;23.10;11.05;;;;;;;8.86;38.36;101489.31;3161280;28;20048;-67
2022/03/14 06:42:09;;;;;;;26.40;10.82;;;;;;;9.10;37.74;101494.22;3158968;28;20052;-68
2022/03/14 06:43:41;;;;;;;24.05;11.48;;;;;;;9.34;37.22;101497.41;3159219;28;20131;-67
2022/03/14 06:45:13;;;;;;;29.55;10.73;;;;;;;9.56;36.84;101490.19;3158481;28;20044;-67
2022/03/14 06:46:45;;;;;;;23.35;11.25;;;;;;;9.73;36.46;101492.53;3159366;28;20067;-67
2022/03/14 06:48:17;;;;;;;31.08;12.30;;;;;;;9.70;35.91;101469.16;3158240;28;20062;-67
2022/03/14 06:49:49;;;;;;;19.52;10.57;;;;;;;9.96;35.77;101497.41;3164067;28;20055;-67
2022/03/14 06:51:21;;;;;;;28.27;11.38;;;;;;;10.00;35.08;101499.09;3158879;28;20048;-66
2022/03/14 06:52:53;;;;;;;24.67;12.73;;;;;;;9.96;35.31;101506.06;3156625;28;20409;-66
2022/03/14 06:54:27;;;;;;;25.10;11.73;;;;;;;9.94;35.34;101505.25;3157116;28;20082;-66
2022/03/14 06:55:59;;;;;;;26.38;11.85;;;;;;;9.95;34.97;101513.91;3152960;28;20049;-66
2022/03/14 06:57:33;;;;;;;36.50;15.48;;;;;;;9.99;34.98;101513.81;3158236;28;20044;-65
2022/03/14 06:59:05;;;;;;;31.50;14.45;;;;;;;9.70;34.77;101459.66;3159932;28;20130;-66
2022/03/14 07:00:37;;;;;;;34.97;14.05;;;;;;;10.24;34.86;101514.31;3161477;28;20048;-66
2022/03/14 07:02:09;;;;;;;30.80;13.38;;;;;;;10.53;34.40;101519.91;3151798;28;20059;-66
2022/03/14 07:03:47;;;;;;;28.15;14.63;;;;;;;10.88;33.94;101512.34;3159241;28;20108;-67
2022/03/14 07:05:21;;;;;;;33.20;14.30;;;;;;;11.52;33.35;101515.38;3158412;28;20174;-61
2022/03/14 07:06:52;;;;;;;28.02;13.95;;;;;;;12.13;32.91;101504.47;3160213;28;20048;-61